sensor_id;sensor_type;location;lat;lon;timestamp;P1;durP1;ratioP1;P2;durP2;ratioP2
60030;SDS011;45901;47.600;9.890;2022-11-20T00:00:41;5.97;;;2.70;;
60030;SDS011;45901;47.600;9.890;2022-11-20T00:03:09;6.73;;;3.53;;
60030;SDS011;45901;47.600;9.890;2022-11-20T00:05:36;5.90;;;3.00;;
60030;SDS011;45901;47.600;9.890;2022-11-20T00:08:03;6.37;;;2.67;;
60030;SDS011;45901;47.600;9.890;2022-11-20T00:10:31;7.87;;;3.17;;
60030;SDS011;45901;47.600;9.890;2022-11-20T00:12:58;8.07;;;2.97;;
60030;SDS011;45901;47.600;9.890;2022-11-20T00:15:25;5.90;;;3.70;;
60030;SDS011;45901;47.600;9.890;2022-11-20T00:17:54;6.57;;;3.10;;
60030;SDS011;45901;47.600;9.890;2022-11-20T00:20:21;5.47;;;3.30;;
60030;SDS011;45901;47.600;9.890;2022-11-20T00:22:49;4.67;;;3.07;;
60030;SDS011;45901;47.600;9.890;2022-11-20T00:25:16;5.43;;;3.50;;
60030;SDS011;45901;47.600;9.890;2022-11-20T00:27:43;8.67;;;3.90;;
60030;SDS011;45901;47.600;9.890;2022-11-20T00:30:11;7.77;;;3.80;;
60030;SDS011;45901;47.600;9.890;2022-11-20T00:32:38;8.30;;;3.73;;
60030;SDS011;45901;47.600;9.890;2022-11-20T00:35:07;6.60;;;4.20;;
60030;SDS011;45901;47.600;9.890;2022-11-20T00:37:34;9.17;;;3.90;;
60030;SDS011;45901;47.600;9.890;2022-11-20T00:40:02;7.77;;;4.53;;
60030;SDS011;45901;47.600;9.890;2022-11-20T00:42:30;8.13;;;3.47;;
60030;SDS011;45901;47.600;9.890;2022-11-20T00:44:57;4.97;;;3.67;;
60030;SDS011;45901;47.600;9.890;2022-11-20T00:47:25;8.07;;;3.53;;
60030;SDS011;45901;47.600;9.890;2022-11-20T00:49:52;7.57;;;3.30;;
60030;SDS011;45901;47.600;9.890;2022-11-20T00:52:20;4.00;;;2.83;;
60030;SDS011;45901;47.600;9.890;2022-11-20T00:54:48;5.93;;;3.53;;
60030;SDS011;45901;47.600;9.890;2022-11-20T00:57:15;6.30;;;3.67;;
60030;SDS011;45901;47.600;9.890;2022-11-20T00:59:42;4.77;;;3.03;;
60030;SDS011;45901;47.600;9.890;2022-11-20T01:02:09;7.33;;;4.20;;
60030;SDS011;45901;47.600;9.890;2022-11-20T01:04:37;7.67;;;3.60;;
60030;SDS011;45901;47.600;9.890;2022-11-20T01:07:04;5.63;;;4.10;;
60030;SDS011;45901;47.600;9.890;2022-11-20T01:09:32;6.73;;;4.30;;
60030;SDS011;45901;47.600;9.890;2022-11-20T01:12:00;5.27;;;4.37;;
60030;SDS011;45901;47.600;9.890;2022-11-20T01:14:27;5.97;;;4.20;;
60030;SDS011;45901;47.600;9.890;2022-11-20T01:16:54;6.20;;;4.00;;
60030;SDS011;45901;47.600;9.890;2022-11-20T01:19:22;5.93;;;4.07;;
60030;SDS011;45901;47.600;9.890;2022-11-20T01:21:50;5.60;;;4.27;;
60030;SDS011;45901;47.600;9.890;2022-11-20T01:24:19;6.77;;;4.33;;
60030;SDS011;45901;47.600;9.890;2022-11-20T01:26:50;6.80;;;4.03;;
60030;SDS011;45901;47.600;9.890;2022-11-20T01:29:19;7.27;;;4.23;;
60030;SDS011;45901;47.600;9.890;2022-11-20T01:31:48;7.27;;;4.33;;
60030;SDS011;45901;47.600;9.890;2022-11-20T01:34:17;6.17;;;4.77;;
60030;SDS011;45901;47.600;9.890;2022-11-20T01:36:45;7.00;;;4.20;;
60030;SDS011;45901;47.600;9.890;2022-11-20T01:39:14;5.93;;;4.43;;
60030;SDS011;45901;47.600;9.890;2022-11-20T01:41:44;11.40;;;5.20;;
60030;SDS011;45901;47.600;9.890;2022-11-20T01:44:47;5.63;;;4.37;;
60030;SDS011;45901;47.600;9.890;2022-11-20T01:47:20;8.07;;;5.50;;
60030;SDS011;45901;47.600;9.890;2022-11-20T01:49:54;6.93;;;5.00;;
60030;SDS011;45901;47.600;9.890;2022-11-20T01:52:26;8.93;;;5.10;;
60030;SDS011;45901;47.600;9.890;2022-11-20T01:55:02;10.23;;;5.27;;
60030;SDS011;45901;47.600;9.890;2022-11-20T01:57:33;11.30;;;5.47;;
60030;SDS011;45901;47.600;9.890;2022-11-20T02:00:05;8.50;;;5.20;;
60030;SDS011;45901;47.600;9.890;2022-11-20T02:02:35;6.60;;;4.73;;
60030;SDS011;45901;47.600;9.890;2022-11-20T02:05:09;8.00;;;5.43;;
60030;SDS011;45901;47.600;9.890;2022-11-20T02:07:45;6.90;;;4.90;;
60030;SDS011;45901;47.600;9.890;2022-11-20T02:10:14;9.93;;;4.83;;
60030;SDS011;45901;47.600;9.890;2022-11-20T02:12:42;10.80;;;4.53;;
60030;SDS011;45901;47.600;9.890;2022-11-20T02:15:28;9.60;;;5.23;;
60030;SDS011;45901;47.600;9.890;2022-11-20T02:17:55;7.43;;;4.70;;
60030;SDS011;45901;47.600;9.890;2022-11-20T02:20:23;9.03;;;5.00;;
60030;SDS011;45901;47.600;9.890;2022-11-20T02:22:51;8.27;;;4.70;;
60030;SDS011;45901;47.600;9.890;2022-11-20T02:25:25;5.07;;;4.30;;
60030;SDS011;45901;47.600;9.890;2022-11-20T02:27:56;8.40;;;4.40;;
60030;SDS011;45901;47.600;9.890;2022-11-20T02:30:24;7.27;;;4.80;;
60030;SDS011;45901;47.600;9.890;2022-11-20T02:32:51;6.50;;;4.10;;
60030;SDS011;45901;47.600;9.890;2022-11-20T02:38:10;9.17;;;4.63;;
60030;SDS011;45901;47.600;9.890;2022-11-20T02:40:40;6.43;;;4.50;;
60030;SDS011;45901;47.600;9.890;2022-11-20T02:43:08;9.07;;;4.70;;
60030;SDS011;45901;47.600;9.890;2022-11-20T02:45:35;9.03;;;4.93;;
60030;SDS011;45901;47.600;9.890;2022-11-20T02:48:03;6.83;;;4.40;;
60030;SDS011;45901;47.600;9.890;2022-11-20T02:50:33;6.33;;;4.50;;
60030;SDS011;45901;47.600;9.890;2022-11-20T02:53:04;7.87;;;4.50;;
60030;SDS011;45901;47.600;9.890;2022-11-20T02:55:31;9.87;;;4.70;;
60030;SDS011;45901;47.600;9.890;2022-11-20T02:58:00;9.23;;;4.83;;
60030;SDS011;45901;47.600;9.890;2022-11-20T03:00:28;8.23;;;5.20;;
60030;SDS011;45901;47.600;9.890;2022-11-20T03:02:55;7.67;;;4.87;;
60030;SDS011;45901;47.600;9.890;2022-11-20T03:05:22;5.27;;;4.37;;
60030;SDS011;45901;47.600;9.890;2022-11-20T03:07:50;6.87;;;4.90;;
60030;SDS011;45901;47.600;9.890;2022-11-20T03:10:17;7.60;;;4.57;;
60030;SDS011;45901;47.600;9.890;2022-11-20T03:12:44;6.43;;;4.67;;
60030;SDS011;45901;47.600;9.890;2022-11-20T03:15:13;6.13;;;4.07;;
60030;SDS011;45901;47.600;9.890;2022-11-20T03:17:40;8.73;;;4.27;;
60030;SDS011;45901;47.600;9.890;2022-11-20T03:20:08;6.60;;;4.03;;
60030;SDS011;45901;47.600;9.890;2022-11-20T03:22:36;6.67;;;4.03;;
60030;SDS011;45901;47.600;9.890;2022-11-20T03:25:04;5.00;;;3.63;;
60030;SDS011;45901;47.600;9.890;2022-11-20T03:27:32;8.40;;;4.10;;
60030;SDS011;45901;47.600;9.890;2022-11-20T03:30:00;5.80;;;4.17;;
60030;SDS011;45901;47.600;9.890;2022-11-20T03:32:29;6.77;;;4.07;;
60030;SDS011;45901;47.600;9.890;2022-11-20T03:34:56;5.83;;;3.93;;
60030;SDS011;45901;47.600;9.890;2022-11-20T03:37:24;10.80;;;3.87;;
60030;SDS011;45901;47.600;9.890;2022-11-20T03:39:51;4.83;;;3.47;;
60030;SDS011;45901;47.600;9.890;2022-11-20T03:42:18;6.67;;;3.80;;
60030;SDS011;45901;47.600;9.890;2022-11-20T03:45:04;9.70;;;4.17;;
60030;SDS011;45901;47.600;9.890;2022-11-20T03:47:33;5.43;;;3.27;;
60030;SDS011;45901;47.600;9.890;2022-11-20T03:50:00;6.73;;;3.63;;
60030;SDS011;45901;47.600;9.890;2022-11-20T03:52:28;5.83;;;3.30;;
60030;SDS011;45901;47.600;9.890;2022-11-20T03:54:55;5.93;;;3.43;;
60030;SDS011;45901;47.600;9.890;2022-11-20T03:57:22;6.23;;;3.47;;
60030;SDS011;45901;47.600;9.890;2022-11-20T03:59:50;5.03;;;3.20;;
60030;SDS011;45901;47.600;9.890;2022-11-20T04:02:17;5.93;;;3.43;;
60030;SDS011;45901;47.600;9.890;2022-11-20T04:04:48;6.20;;;4.10;;
60030;SDS011;45901;47.600;9.890;2022-11-20T04:07:15;8.03;;;3.50;;
60030;SDS011;45901;47.600;9.890;2022-11-20T04:09:42;6.17;;;3.13;;
60030;SDS011;45901;47.600;9.890;2022-11-20T04:12:10;7.90;;;3.67;;
60030;SDS011;45901;47.600;9.890;2022-11-20T04:14:37;5.83;;;3.90;;
60030;SDS011;45901;47.600;9.890;2022-11-20T04:17:04;5.80;;;3.27;;
60030;SDS011;45901;47.600;9.890;2022-11-20T04:19:31;7.20;;;3.00;;
60030;SDS011;45901;47.600;9.890;2022-11-20T04:22:00;7.23;;;3.77;;
60030;SDS011;45901;47.600;9.890;2022-11-20T04:24:27;5.87;;;3.50;;
60030;SDS011;45901;47.600;9.890;2022-11-20T04:26:54;5.03;;;3.50;;
60030;SDS011;45901;47.600;9.890;2022-11-20T04:29:21;7.03;;;3.57;;
60030;SDS011;45901;47.600;9.890;2022-11-20T04:31:49;9.10;;;3.43;;
60030;SDS011;45901;47.600;9.890;2022-11-20T04:34:16;7.43;;;3.53;;
60030;SDS011;45901;47.600;9.890;2022-11-20T04:36:43;5.73;;;3.77;;
60030;SDS011;45901;47.600;9.890;2022-11-20T04:39:13;7.87;;;3.90;;
60030;SDS011;45901;47.600;9.890;2022-11-20T04:41:42;6.90;;;3.60;;
60030;SDS011;45901;47.600;9.890;2022-11-20T04:44:09;5.27;;;3.43;;
60030;SDS011;45901;47.600;9.890;2022-11-20T04:46:37;7.13;;;2.97;;
60030;SDS011;45901;47.600;9.890;2022-11-20T04:49:07;5.53;;;3.10;;
60030;SDS011;45901;47.600;9.890;2022-11-20T04:51:36;7.33;;;3.33;;
60030;SDS011;45901;47.600;9.890;2022-11-20T04:54:04;7.00;;;3.63;;
60030;SDS011;45901;47.600;9.890;2022-11-20T04:56:32;5.10;;;3.63;;
60030;SDS011;45901;47.600;9.890;2022-11-20T04:59:00;4.33;;;3.20;;
60030;SDS011;45901;47.600;9.890;2022-11-20T05:01:28;5.37;;;3.40;;
60030;SDS011;45901;47.600;9.890;2022-11-20T05:03:55;6.83;;;3.70;;
60030;SDS011;45901;47.600;9.890;2022-11-20T05:06:22;7.83;;;3.07;;
60030;SDS011;45901;47.600;9.890;2022-11-20T05:08:50;5.07;;;3.30;;
60030;SDS011;45901;47.600;9.890;2022-11-20T05:11:18;5.23;;;3.17;;
60030;SDS011;45901;47.600;9.890;2022-11-20T05:13:49;5.93;;;3.00;;
60030;SDS011;45901;47.600;9.890;2022-11-20T05:16:18;4.80;;;2.60;;
60030;SDS011;45901;47.600;9.890;2022-11-20T05:18:47;6.00;;;3.23;;
60030;SDS011;45901;47.600;9.890;2022-11-20T05:21:15;5.77;;;2.80;;
60030;SDS011;45901;47.600;9.890;2022-11-20T05:23:43;4.33;;;3.20;;
60030;SDS011;45901;47.600;9.890;2022-11-20T05:26:15;6.73;;;3.10;;
60030;SDS011;45901;47.600;9.890;2022-11-20T05:28:44;4.23;;;2.83;;
60030;SDS011;45901;47.600;9.890;2022-11-20T05:31:13;4.67;;;2.63;;
60030;SDS011;45901;47.600;9.890;2022-11-20T05:33:43;4.30;;;2.73;;
60030;SDS011;45901;47.600;9.890;2022-11-20T05:36:10;4.33;;;2.77;;
60030;SDS011;45901;47.600;9.890;2022-11-20T05:38:40;4.27;;;2.80;;
60030;SDS011;45901;47.600;9.890;2022-11-20T05:41:08;4.20;;;2.63;;
60030;SDS011;45901;47.600;9.890;2022-11-20T05:43:38;4.73;;;3.33;;
60030;SDS011;45901;47.600;9.890;2022-11-20T05:46:07;4.67;;;2.70;;
60030;SDS011;45901;47.600;9.890;2022-11-20T05:48:37;4.60;;;2.80;;
60030;SDS011;45901;47.600;9.890;2022-11-20T05:51:07;3.60;;;2.40;;
60030;SDS011;45901;47.600;9.890;2022-11-20T05:53:36;4.70;;;2.57;;
60030;SDS011;45901;47.600;9.890;2022-11-20T05:56:04;3.73;;;2.40;;
60030;SDS011;45901;47.600;9.890;2022-11-20T05:58:35;2.73;;;2.27;;
60030;SDS011;45901;47.600;9.890;2022-11-20T06:01:03;5.33;;;2.60;;
60030;SDS011;45901;47.600;9.890;2022-11-20T06:03:33;5.43;;;2.93;;
60030;SDS011;45901;47.600;9.890;2022-11-20T06:06:02;4.17;;;2.70;;
60030;SDS011;45901;47.600;9.890;2022-11-20T06:08:31;4.40;;;2.60;;
60030;SDS011;45901;47.600;9.890;2022-11-20T06:11:02;4.57;;;2.63;;
60030;SDS011;45901;47.600;9.890;2022-11-20T06:13:31;3.63;;;2.63;;
60030;SDS011;45901;47.600;9.890;2022-11-20T06:15:58;3.67;;;2.00;;
60030;SDS011;45901;47.600;9.890;2022-11-20T06:18:26;5.30;;;2.53;;
60030;SDS011;45901;47.600;9.890;2022-11-20T06:21:04;6.73;;;2.60;;
60030;SDS011;45901;47.600;9.890;2022-11-20T06:23:33;4.27;;;2.43;;
60030;SDS011;45901;47.600;9.890;2022-11-20T06:26:02;2.97;;;2.27;;
60030;SDS011;45901;47.600;9.890;2022-11-20T06:28:31;4.57;;;2.47;;
60030;SDS011;45901;47.600;9.890;2022-11-20T06:30:59;4.27;;;2.30;;
60030;SDS011;45901;47.600;9.890;2022-11-20T06:33:26;4.63;;;2.27;;
60030;SDS011;45901;47.600;9.890;2022-11-20T06:35:55;3.33;;;2.23;;
60030;SDS011;45901;47.600;9.890;2022-11-20T06:38:25;2.50;;;1.90;;
60030;SDS011;45901;47.600;9.890;2022-11-20T06:40:53;4.30;;;2.40;;
60030;SDS011;45901;47.600;9.890;2022-11-20T06:43:21;3.40;;;2.23;;
60030;SDS011;45901;47.600;9.890;2022-11-20T06:45:51;4.40;;;2.67;;
60030;SDS011;45901;47.600;9.890;2022-11-20T06:48:19;5.07;;;3.33;;
60030;SDS011;45901;47.600;9.890;2022-11-20T06:50:46;6.27;;;3.43;;
60030;SDS011;45901;47.600;9.890;2022-11-20T06:53:13;6.83;;;3.50;;
60030;SDS011;45901;47.600;9.890;2022-11-20T06:55:43;6.63;;;3.53;;
60030;SDS011;45901;47.600;9.890;2022-11-20T06:58:11;5.70;;;3.50;;
60030;SDS011;45901;47.600;9.890;2022-11-20T07:00:38;6.17;;;3.17;;
60030;SDS011;45901;47.600;9.890;2022-11-20T07:03:06;5.73;;;3.50;;
60030;SDS011;45901;47.600;9.890;2022-11-20T07:05:35;4.40;;;3.23;;
60030;SDS011;45901;47.600;9.890;2022-11-20T07:08:04;7.27;;;2.83;;
60030;SDS011;45901;47.600;9.890;2022-11-20T07:10:32;5.27;;;2.77;;
60030;SDS011;45901;47.600;9.890;2022-11-20T07:13:01;5.43;;;2.47;;
60030;SDS011;45901;47.600;9.890;2022-11-20T07:15:28;6.60;;;2.50;;
60030;SDS011;45901;47.600;9.890;2022-11-20T07:17:58;6.07;;;2.50;;
60030;SDS011;45901;47.600;9.890;2022-11-20T07:20:26;6.57;;;2.50;;
60030;SDS011;45901;47.600;9.890;2022-11-20T07:22:53;4.23;;;2.43;;
60030;SDS011;45901;47.600;9.890;2022-11-20T07:25:21;3.27;;;2.27;;
60030;SDS011;45901;47.600;9.890;2022-11-20T07:27:48;4.20;;;2.63;;
60030;SDS011;45901;47.600;9.890;2022-11-20T07:30:17;3.80;;;2.90;;
60030;SDS011;45901;47.600;9.890;2022-11-20T07:32:46;7.17;;;3.20;;
60030;SDS011;45901;47.600;9.890;2022-11-20T07:35:13;4.10;;;2.73;;
60030;SDS011;45901;47.600;9.890;2022-11-20T07:37:41;8.60;;;3.30;;
60030;SDS011;45901;47.600;9.890;2022-11-20T07:40:08;6.60;;;3.23;;
60030;SDS011;45901;47.600;9.890;2022-11-20T07:42:41;6.23;;;2.33;;
60030;SDS011;45901;47.600;9.890;2022-11-20T07:45:14;4.00;;;2.43;;
60030;SDS011;45901;47.600;9.890;2022-11-20T07:47:43;6.83;;;2.87;;
60030;SDS011;45901;47.600;9.890;2022-11-20T07:50:10;4.83;;;2.20;;
60030;SDS011;45901;47.600;9.890;2022-11-20T07:52:38;4.30;;;2.77;;
60030;SDS011;45901;47.600;9.890;2022-11-20T07:55:06;9.00;;;3.17;;
60030;SDS011;45901;47.600;9.890;2022-11-20T07:57:34;4.50;;;2.90;;
60030;SDS011;45901;47.600;9.890;2022-11-20T08:00:02;5.03;;;2.70;;
60030;SDS011;45901;47.600;9.890;2022-11-20T08:02:33;6.73;;;2.40;;
60030;SDS011;45901;47.600;9.890;2022-11-20T08:05:05;5.67;;;3.43;;
60030;SDS011;45901;47.600;9.890;2022-11-20T08:07:37;5.07;;;3.53;;
60030;SDS011;45901;47.600;9.890;2022-11-20T08:10:05;6.97;;;3.70;;
60030;SDS011;45901;47.600;9.890;2022-11-20T08:12:34;5.93;;;3.40;;
60030;SDS011;45901;47.600;9.890;2022-11-20T08:15:18;4.73;;;2.50;;
60030;SDS011;45901;47.600;9.890;2022-11-20T08:17:46;3.47;;;2.23;;
60030;SDS011;45901;47.600;9.890;2022-11-20T08:20:15;3.53;;;2.40;;
60030;SDS011;45901;47.600;9.890;2022-11-20T08:22:42;4.33;;;2.43;;
60030;SDS011;45901;47.600;9.890;2022-11-20T08:25:09;5.40;;;3.50;;
60030;SDS011;45901;47.600;9.890;2022-11-20T08:27:36;5.67;;;2.80;;
60030;SDS011;45901;47.600;9.890;2022-11-20T08:30:04;4.63;;;3.03;;
60030;SDS011;45901;47.600;9.890;2022-11-20T08:32:32;14.03;;;6.97;;
60030;SDS011;45901;47.600;9.890;2022-11-20T08:35:02;28.47;;;11.33;;
60030;SDS011;45901;47.600;9.890;2022-11-20T08:37:31;14.63;;;7.20;;
60030;SDS011;45901;47.600;9.890;2022-11-20T08:39:58;4.93;;;2.53;;
60030;SDS011;45901;47.600;9.890;2022-11-20T08:42:25;4.33;;;2.00;;
60030;SDS011;45901;47.600;9.890;2022-11-20T08:44:53;4.10;;;2.60;;
60030;SDS011;45901;47.600;9.890;2022-11-20T08:47:20;3.90;;;2.27;;
60030;SDS011;45901;47.600;9.890;2022-11-20T08:49:47;2.87;;;2.27;;
60030;SDS011;45901;47.600;9.890;2022-11-20T08:52:15;3.60;;;2.33;;
60030;SDS011;45901;47.600;9.890;2022-11-20T08:54:46;3.30;;;2.40;;
60030;SDS011;45901;47.600;9.890;2022-11-20T09:00:20;7.70;;;4.27;;
60030;SDS011;45901;47.600;9.890;2022-11-20T09:02:47;8.80;;;3.70;;
60030;SDS011;45901;47.600;9.890;2022-11-20T09:05:15;8.07;;;3.30;;
60030;SDS011;45901;47.600;9.890;2022-11-20T09:07:42;3.77;;;2.50;;
60030;SDS011;45901;47.600;9.890;2022-11-20T09:10:10;6.03;;;2.23;;
60030;SDS011;45901;47.600;9.890;2022-11-20T09:12:38;4.70;;;2.63;;
60030;SDS011;45901;47.600;9.890;2022-11-20T09:15:09;2.90;;;2.17;;
60030;SDS011;45901;47.600;9.890;2022-11-20T09:17:41;5.80;;;3.77;;
60030;SDS011;45901;47.600;9.890;2022-11-20T09:20:18;5.23;;;3.40;;
60030;SDS011;45901;47.600;9.890;2022-11-20T09:22:45;5.80;;;2.47;;
60030;SDS011;45901;47.600;9.890;2022-11-20T09:25:14;6.27;;;3.50;;
60030;SDS011;45901;47.600;9.890;2022-11-20T09:27:42;5.03;;;2.57;;
60030;SDS011;45901;47.600;9.890;2022-11-20T09:30:12;4.57;;;2.30;;
60030;SDS011;45901;47.600;9.890;2022-11-20T09:32:40;5.13;;;2.30;;
60030;SDS011;45901;47.600;9.890;2022-11-20T09:35:08;2.33;;;1.50;;
60030;SDS011;45901;47.600;9.890;2022-11-20T09:37:36;4.70;;;1.63;;
60030;SDS011;45901;47.600;9.890;2022-11-20T09:40:04;2.60;;;1.63;;
60030;SDS011;45901;47.600;9.890;2022-11-20T09:42:36;2.60;;;1.70;;
60030;SDS011;45901;47.600;9.890;2022-11-20T09:45:16;3.60;;;1.77;;
60030;SDS011;45901;47.600;9.890;2022-11-20T09:50:52;4.70;;;1.77;;
60030;SDS011;45901;47.600;9.890;2022-11-20T09:53:33;3.50;;;1.90;;
60030;SDS011;45901;47.600;9.890;2022-11-20T09:56:19;6.47;;;2.87;;
60030;SDS011;45901;47.600;9.890;2022-11-20T09:58:49;7.77;;;2.80;;
60030;SDS011;45901;47.600;9.890;2022-11-20T10:01:21;4.90;;;2.60;;
60030;SDS011;45901;47.600;9.890;2022-11-20T10:03:54;3.33;;;2.30;;
60030;SDS011;45901;47.600;9.890;2022-11-20T10:06:28;4.10;;;1.90;;
60030;SDS011;45901;47.600;9.890;2022-11-20T10:09:03;3.40;;;1.70;;
60030;SDS011;45901;47.600;9.890;2022-11-20T10:11:45;5.40;;;2.40;;
60030;SDS011;45901;47.600;9.890;2022-11-20T10:14:26;4.83;;;1.80;;
60030;SDS011;45901;47.600;9.890;2022-11-20T10:17:03;3.00;;;1.80;;
60030;SDS011;45901;47.600;9.890;2022-11-20T10:19:51;3.67;;;1.70;;
60030;SDS011;45901;47.600;9.890;2022-11-20T10:22:40;5.70;;;2.20;;
60030;SDS011;45901;47.600;9.890;2022-11-20T10:25:26;3.73;;;2.10;;
60030;SDS011;45901;47.600;9.890;2022-11-20T10:28:10;3.57;;;1.47;;
60030;SDS011;45901;47.600;9.890;2022-11-20T10:30:55;2.63;;;1.37;;
60030;SDS011;45901;47.600;9.890;2022-11-20T10:33:26;2.97;;;1.20;;
60030;SDS011;45901;47.600;9.890;2022-11-20T10:36:02;2.23;;;1.10;;
60030;SDS011;45901;47.600;9.890;2022-11-20T10:38:40;2.30;;;1.00;;
60030;SDS011;45901;47.600;9.890;2022-11-20T10:41:21;2.93;;;1.33;;
60030;SDS011;45901;47.600;9.890;2022-11-20T10:43:58;2.00;;;1.27;;
60030;SDS011;45901;47.600;9.890;2022-11-20T10:46:34;4.00;;;1.30;;
60030;SDS011;45901;47.600;9.890;2022-11-20T10:49:11;3.03;;;1.33;;
60030;SDS011;45901;47.600;9.890;2022-11-20T10:51:44;2.93;;;1.77;;
60030;SDS011;45901;47.600;9.890;2022-11-20T10:54:26;2.70;;;1.70;;
60030;SDS011;45901;47.600;9.890;2022-11-20T10:57:04;4.30;;;1.40;;
60030;SDS011;45901;47.600;9.890;2022-11-20T10:59:50;3.90;;;1.60;;
60030;SDS011;45901;47.600;9.890;2022-11-20T11:02:32;4.13;;;2.07;;
60030;SDS011;45901;47.600;9.890;2022-11-20T11:05:10;4.37;;;1.80;;
60030;SDS011;45901;47.600;9.890;2022-11-20T11:07:49;3.13;;;1.80;;
60030;SDS011;45901;47.600;9.890;2022-11-20T11:10:22;2.90;;;1.60;;
60030;SDS011;45901;47.600;9.890;2022-11-20T11:12:54;4.27;;;1.83;;
60030;SDS011;45901;47.600;9.890;2022-11-20T11:15:25;5.60;;;1.80;;
60030;SDS011;45901;47.600;9.890;2022-11-20T11:17:56;2.37;;;1.63;;
60030;SDS011;45901;47.600;9.890;2022-11-20T11:20:25;5.13;;;1.93;;
60030;SDS011;45901;47.600;9.890;2022-11-20T11:22:53;2.80;;;1.50;;
60030;SDS011;45901;47.600;9.890;2022-11-20T11:25:34;3.53;;;1.80;;
60030;SDS011;45901;47.600;9.890;2022-11-20T11:28:53;2.30;;;1.53;;
60030;SDS011;45901;47.600;9.890;2022-11-20T11:37:49;4.47;;;2.17;;
60030;SDS011;45901;47.600;9.890;2022-11-20T11:41:28;4.87;;;1.30;;
60030;SDS011;45901;47.600;9.890;2022-11-20T11:44:01;2.23;;;1.13;;
60030;SDS011;45901;47.600;9.890;2022-11-20T11:47:03;1.47;;;1.00;;
60030;SDS011;45901;47.600;9.890;2022-11-20T11:49:36;1.43;;;0.80;;
60030;SDS011;45901;47.600;9.890;2022-11-20T11:52:08;2.30;;;0.97;;
60030;SDS011;45901;47.600;9.890;2022-11-20T11:54:43;1.40;;;1.10;;
60030;SDS011;45901;47.600;9.890;2022-11-20T11:57:22;1.63;;;0.93;;
60030;SDS011;45901;47.600;9.890;2022-11-20T12:00:01;1.47;;;0.87;;
60030;SDS011;45901;47.600;9.890;2022-11-20T12:02:35;2.07;;;1.13;;
60030;SDS011;45901;47.600;9.890;2022-11-20T12:05:14;2.27;;;1.33;;
60030;SDS011;45901;47.600;9.890;2022-11-20T12:07:49;2.37;;;1.40;;
60030;SDS011;45901;47.600;9.890;2022-11-20T12:10:21;3.10;;;1.47;;
60030;SDS011;45901;47.600;9.890;2022-11-20T12:12:55;3.87;;;1.63;;
60030;SDS011;45901;47.600;9.890;2022-11-20T12:15:31;3.13;;;1.83;;
60030;SDS011;45901;47.600;9.890;2022-11-20T12:18:00;2.17;;;1.07;;
60030;SDS011;45901;47.600;9.890;2022-11-20T12:20:29;2.77;;;1.30;;
60030;SDS011;45901;47.600;9.890;2022-11-20T12:23:09;2.10;;;1.20;;
60030;SDS011;45901;47.600;9.890;2022-11-20T12:25:45;2.73;;;1.30;;
60030;SDS011;45901;47.600;9.890;2022-11-20T12:28:29;2.50;;;1.30;;
60030;SDS011;45901;47.600;9.890;2022-11-20T12:31:14;5.80;;;1.57;;
60030;SDS011;45901;47.600;9.890;2022-11-20T12:37:12;3.67;;;1.93;;
60030;SDS011;45901;47.600;9.890;2022-11-20T12:40:02;2.13;;;1.20;;
60030;SDS011;45901;47.600;9.890;2022-11-20T12:42:53;3.20;;;1.70;;
60030;SDS011;45901;47.600;9.890;2022-11-20T12:46:22;3.37;;;1.20;;
60030;SDS011;45901;47.600;9.890;2022-11-20T12:49:02;3.90;;;1.90;;
60030;SDS011;45901;47.600;9.890;2022-11-20T12:51:52;4.73;;;2.00;;
60030;SDS011;45901;47.600;9.890;2022-11-20T12:54:50;3.87;;;1.57;;
60030;SDS011;45901;47.600;9.890;2022-11-20T12:57:49;2.53;;;1.50;;
60030;SDS011;45901;47.600;9.890;2022-11-20T13:00:21;2.80;;;1.50;;
60030;SDS011;45901;47.600;9.890;2022-11-20T13:03:06;5.53;;;1.63;;
60030;SDS011;45901;47.600;9.890;2022-11-20T13:05:55;4.00;;;1.93;;
60030;SDS011;45901;47.600;9.890;2022-11-20T13:08:33;4.03;;;1.67;;
60030;SDS011;45901;47.600;9.890;2022-11-20T13:11:09;4.63;;;1.43;;
60030;SDS011;45901;47.600;9.890;2022-11-20T13:13:48;1.53;;;0.97;;
60030;SDS011;45901;47.600;9.890;2022-11-20T13:16:36;3.03;;;1.50;;
60030;SDS011;45901;47.600;9.890;2022-11-20T13:19:09;3.60;;;1.53;;
60030;SDS011;45901;47.600;9.890;2022-11-20T13:21:41;2.80;;;1.30;;
60030;SDS011;45901;47.600;9.890;2022-11-20T13:24:21;4.13;;;1.73;;
60030;SDS011;45901;47.600;9.890;2022-11-20T13:27:03;5.27;;;1.80;;
60030;SDS011;45901;47.600;9.890;2022-11-20T13:29:45;2.10;;;1.27;;
60030;SDS011;45901;47.600;9.890;2022-11-20T13:32:26;1.93;;;1.20;;
60030;SDS011;45901;47.600;9.890;2022-11-20T13:34:57;3.77;;;0.93;;
60030;SDS011;45901;47.600;9.890;2022-11-20T13:37:28;3.03;;;1.20;;
60030;SDS011;45901;47.600;9.890;2022-11-20T13:40:11;2.30;;;1.20;;
60030;SDS011;45901;47.600;9.890;2022-11-20T13:42:56;3.60;;;1.40;;
60030;SDS011;45901;47.600;9.890;2022-11-20T13:45:42;4.13;;;1.40;;
60030;SDS011;45901;47.600;9.890;2022-11-20T13:48:20;2.13;;;1.00;;
60030;SDS011;45901;47.600;9.890;2022-11-20T13:50:54;3.93;;;0.90;;
60030;SDS011;45901;47.600;9.890;2022-11-20T13:56:45;3.07;;;1.20;;
60030;SDS011;45901;47.600;9.890;2022-11-20T13:59:32;1.20;;;0.97;;
60030;SDS011;45901;47.600;9.890;2022-11-20T14:02:17;3.80;;;1.17;;
60030;SDS011;45901;47.600;9.890;2022-11-20T14:04:48;1.53;;;0.77;;
60030;SDS011;45901;47.600;9.890;2022-11-20T14:07:19;2.00;;;0.90;;
60030;SDS011;45901;47.600;9.890;2022-11-20T14:09:51;2.73;;;1.40;;
60030;SDS011;45901;47.600;9.890;2022-11-20T14:12:21;1.97;;;0.80;;
60030;SDS011;45901;47.600;9.890;2022-11-20T14:14:55;2.67;;;1.40;;
60030;SDS011;45901;47.600;9.890;2022-11-20T14:17:23;2.83;;;1.50;;
60030;SDS011;45901;47.600;9.890;2022-11-20T14:19:57;3.13;;;1.57;;
60030;SDS011;45901;47.600;9.890;2022-11-20T14:22:28;4.10;;;2.10;;
60030;SDS011;45901;47.600;9.890;2022-11-20T14:25:03;2.90;;;1.37;;
60030;SDS011;45901;47.600;9.890;2022-11-20T14:27:44;3.33;;;1.20;;
60030;SDS011;45901;47.600;9.890;2022-11-20T14:30:19;3.43;;;1.53;;
60030;SDS011;45901;47.600;9.890;2022-11-20T14:32:48;3.90;;;1.03;;
60030;SDS011;45901;47.600;9.890;2022-11-20T14:35:18;4.47;;;1.93;;
60030;SDS011;45901;47.600;9.890;2022-11-20T14:37:51;3.27;;;1.60;;
60030;SDS011;45901;47.600;9.890;2022-11-20T14:40:23;3.90;;;2.07;;
60030;SDS011;45901;47.600;9.890;2022-11-20T14:42:57;3.30;;;1.97;;
60030;SDS011;45901;47.600;9.890;2022-11-20T14:57:33;7.03;;;2.33;;
60030;SDS011;45901;47.600;9.890;2022-11-20T15:05:00;5.17;;;2.10;;
60030;SDS011;45901;47.600;9.890;2022-11-20T15:22:45;2.83;;;1.90;;
60030;SDS011;45901;47.600;9.890;2022-11-20T16:06:16;20.33;;;10.77;;
60030;SDS011;45901;47.600;9.890;2022-11-20T16:29:22;5.13;;;2.80;;
60030;SDS011;45901;47.600;9.890;2022-11-20T16:33:40;16.23;;;7.83;;
60030;SDS011;45901;47.600;9.890;2022-11-20T16:36:08;10.97;;;5.47;;
60030;SDS011;45901;47.600;9.890;2022-11-20T16:38:38;17.13;;;8.70;;
60030;SDS011;45901;47.600;9.890;2022-11-20T16:41:07;11.10;;;6.80;;
60030;SDS011;45901;47.600;9.890;2022-11-20T16:58:26;21.10;;;10.83;;
60030;SDS011;45901;47.600;9.890;2022-11-20T17:01:04;21.43;;;11.83;;
60030;SDS011;45901;47.600;9.890;2022-11-20T17:03:40;21.80;;;12.33;;
60030;SDS011;45901;47.600;9.890;2022-11-20T17:06:10;21.03;;;11.93;;
60030;SDS011;45901;47.600;9.890;2022-11-20T17:08:41;21.83;;;11.60;;
60030;SDS011;45901;47.600;9.890;2022-11-20T17:11:09;16.37;;;9.30;;
60030;SDS011;45901;47.600;9.890;2022-11-20T17:13:39;9.40;;;5.87;;
60030;SDS011;45901;47.600;9.890;2022-11-20T17:16:08;10.30;;;5.93;;
60030;SDS011;45901;47.600;9.890;2022-11-20T17:18:44;19.13;;;8.17;;
60030;SDS011;45901;47.600;9.890;2022-11-20T17:21:14;14.67;;;7.63;;
60030;SDS011;45901;47.600;9.890;2022-11-20T17:23:42;15.53;;;7.73;;
60030;SDS011;45901;47.600;9.890;2022-11-20T17:26:11;11.07;;;5.33;;